x

Buoy M01 - Jordan Basin (44037) Wave Buoy

1:04pm - Sun 26th Apr 2015 All times are EDT. -4 hours from GMT.

  • Sig Wave height 2.0ft
  • Peak Period 11s
  • Wind
    7mph
  • Air Temp 43°f
  • Sea Pressure 1002.6mb
  • Buoy M01 - Jordan Basin
  • Buoy M01 - Jordan Basin

More Historic Weather Station data

Upgrade to MSW Pro to gain access to the past 30 days of data for over 8000 Wavebouys and Weather Stations around the globe.

Join Pro

Comparision Forecast

View Surf forecast
   
Sun 04/26 1:04pm 2ft 11s 7
mph
1002.6mb - 43f
12:04pm 2ft 8s 4 7 mph 1003.1mb - 47f
11:04am 2ft 8s 7 9 mph 1003.3mb 42f 51f
9:04am 2ft 8s 7 9 mph 1003mb - 43f
6:04am  -   -  9
mph
1002.6mb - 40f
5:04am 2.5ft 11s 9 11 mph 1002.3mb 41f 40f
4:04am 2ft 4s 9 11 mph 1002.5mb - 40f
3:04am 3ft 11s  -  mph - 41f -
2:04am 3ft 11s  -  mph - 41f -
Sat 04/25 11:04pm 2.5ft 3s  -  mph - 41f -
10:04pm 2ft 5s  -  mph - 41f -
8:04pm 2.5ft 8s 11 13 mph 1004.3mb 41f 40f
7:04pm 2.5ft 8s 11
mph
1004mb 41f 41f
3:04pm  -   -  13 16 mph 1004mb - 44f
2:04pm 3ft 5s 11 13 mph 1004.3mb - 43f
1:04pm 2.5ft 5s  -  mph - 41f -
12:04pm 3ft 5s 13 18 mph 1004.5mb 41f 41f
11:04am 3.5ft 5s  -  mph - 41f -
9:04am 3.5ft 5s 16 18 mph 1004.6mb 41f 40f
8:04am 4ft 5s 16 18 mph 1004.7mb 40f 39f
7:04am  -   -  16 18 mph 1004.7mb - 38f
5:04am 4.5ft 5s 16 20 mph 1003.7mb - 37f
4:04am 4.5ft 5s 16 18 mph 1003.7mb - 38f
3:04am 4.5ft 5s 13 18 mph 1003.9mb 41f 38f
2:04am 5ft 5s 18 20 mph 1004mb - 38f
1:04am 6ft 5s 20 25 mph 1004.3mb 41f 38f
12:04am 5.5ft 5s 20 25 mph 1004.6mb 41f 38f
Fri 04/24 11:04pm 5ft 5s 20 25 mph 1004.3mb - 39f
10:04pm  -   -  22 25 mph 1004.2mb - 40f
8:04pm 4.5ft 5s 20 25 mph 1003.2mb 41f 41f
7:04pm 4.5ft 6s 25 29 mph 1002.3mb 41f 42f
6:04pm 4.5ft 8s 18 22 mph 1001.8mb 41f 44f
4:04pm  -   -  13 16 mph 1001.5mb - 44f
2:04pm  -   -  11 16 mph 1001.7mb - 43f
1:04pm 3.5ft 5s 13 16 mph 1001.9mb - 43f
12:04pm 5ft 8s 18 20 mph 1002mb - 42f
11:04am 4.5ft 6s 16 20 mph 1001.9mb - 42f
10:04am 5ft 8s 18 20 mph 1002.1mb - 40f
9:04am 5.5ft 8s 18 20 mph 1002mb 41f 40f
8:04am 6ft 11s 16 20 mph 1001.7mb - 40f
7:04am 4.5ft 8s 20 25 mph 1001.4mb - 41f
6:04am 5ft 8s 16 20 mph 1001.4mb 41f 40f
5:04am 4.5ft 5s 13 18 mph 1001.1mb - 39f
4:04am 5ft 8s 18 22 mph 1000.9mb - 39f
3:04am 5ft 8s 22 27 mph 1000.9mb - 39f
2:04am  -   -  22 27 mph 1000.8mb - 39f
1:04am  -   -  20 25 mph 1000.9mb - 38f
12:04am  -   -  25 29 mph 1000.9mb - 37f
Thu 04/23 11:04pm 5.5ft 8s 22 27 mph 1000.9mb - 37f
10:04pm 5ft 8s 22 27 mph 1000.9mb - 39f
9:04pm 5ft 8s 18 22 mph 1000.9mb - 41f
8:04pm 5.5ft 8s 16 18 mph 1000.7mb 41f 41f
7:04pm 6ft 8s 13 16 mph 1000.5mb - 42f
6:04pm 6ft 8s 11 13 mph 1000.4mb 42f 42f
5:04pm  -   -  11 13 mph 1000.4mb - 46f
4:04pm 5ft 11s 11 13 mph 1000.1mb 42f 46f
3:04pm 5ft 11s 11 13 mph 1000.1mb - 45f
1:04pm 5.5ft 5s 9 11 mph 1001.1mb - 44f
12:04pm 4.5ft 5s 11 13 mph 1001.5mb 41f 45f
11:04am 4.5ft 5s 11 13 mph 1001.7mb - 46f
10:04am 5.5ft 8s 13 16 mph 1001.8mb - 46f
9:04am 6ft 11s 13 18 mph 1001.5mb - 42f
8:04am 6.5ft 11s 13 16 mph 1001.3mb - 42f
7:04am  -   -  13 16 mph 1000.3mb - 42f
6:04am 8ft 11s 20 25 mph 1000.5mb - 43f
5:04am 7ft 11s 25 27 mph 1000.2mb - 45f
4:04am 8ft 11s 22 27 mph 999.3mb - 44f
3:04am 8.5ft 11s 18 20 mph 999.5mb - 44f
2:04am 7ft 11s 18 22 mph 1000.9mb - 43f
1:04am 7ft 11s 20 27 mph 1002mb - 44f
Wed 04/22 11:04pm 6ft 11s 18 20 mph 1004.2mb - 44f
10:04pm 6ft 11s 18 22 mph 1005.3mb - 44f
9:04pm 5ft 8s 16 20 mph 1006.1mb - 43f
8:04pm 6.5ft 11s 13 16 mph 1006.7mb - 43f
7:04pm 6.5ft 11s 13 16 mph 1006.7mb 42f 44f